Time;durP1;ratioP1;P1;durP2;ratioP2;P2;SDS_P1;SDS_P2;PMS_P1;PMS_P2;Temp;Humidity;BMP_temperature;BMP_pressure;BME280_temperature;BME280_humidity;BME280_pressure;Samples;Min_cycle;Max_cycle;Signal;HPM_P1;HPM_P2
2023/11/11 00:02:35;;;;;;;9.77;6.15;;;;;;;8.07;100.00;99838.69;4906704;29;20141;-67
2023/11/11 00:05:24;;;;;;;10.20;5.57;;;;;;;8.05;100.00;99835.44;4875856;29;20049;-67
2023/11/11 00:08:12;;;;;;;8.65;5.80;;;;;;;8.06;100.00;99843.31;4890746;29;20131;-66
2023/11/11 00:11:00;;;;;;;11.00;5.57;;;;;;;8.07;100.00;99849.53;4902974;29;20493;-67
2023/11/11 00:13:48;;;;;;;13.02;7.18;;;;;;;8.07;100.00;99847.63;4916484;29;20108;-68
2023/11/11 00:16:36;;;;;;;11.32;6.35;;;;;;;8.10;100.00;99838.97;4901688;29;20051;-67
2023/11/11 00:19:24;;;;;;;10.10;5.28;;;;;;;8.11;100.00;99847.91;4888688;29;20047;-67
2023/11/11 00:22:13;;;;;;;8.40;4.57;;;;;;;8.08;100.00;99849.28;4916508;29;20060;-68
2023/11/11 00:25:02;;;;;;;8.30;4.18;;;;;;;8.09;100.00;99853.59;4904928;29;20052;-67
2023/11/11 00:27:50;;;;;;;7.50;4.32;;;;;;;8.07;100.00;99853.06;4905861;29;20520;-66
2023/11/11 00:30:38;;;;;;;9.02;4.30;;;;;;;8.08;100.00;99857.41;4893867;29;20040;-68
2023/11/11 00:33:29;;;;;;;8.48;4.03;;;;;;;8.07;100.00;99849.53;4906853;29;20099;-66
2023/11/11 00:36:19;;;;;;;8.93;4.18;;;;;;;8.10;100.00;99852.53;4918183;29;20122;-67
2023/11/11 00:39:07;;;;;;;8.43;4.43;;;;;;;8.11;100.00;99859.56;4919592;29;20056;-67
2023/11/11 00:41:55;;;;;;;9.30;4.60;;;;;;;8.10;100.00;99855.25;4907427;29;20048;-68
2023/11/11 00:44:44;;;;;;;8.55;4.43;;;;;;;8.09;100.00;99859.03;4903799;29;20127;-67
2023/11/11 00:47:32;;;;;;;9.07;4.40;;;;;;;8.07;100.00;99868.53;4901757;29;20048;-67
2023/11/11 00:50:20;;;;;;;9.68;5.00;;;;;;;8.06;100.00;99875.88;4888913;29;20442;-67
2023/11/11 00:53:08;;;;;;;9.10;4.60;;;;;;;8.05;100.00;99876.13;4913293;29;20131;-68
2023/11/11 00:55:57;;;;;;;9.43;4.75;;;;;;;8.01;100.00;99881.31;4925545;29;20091;-68
2023/11/11 00:58:45;;;;;;;12.07;4.25;;;;;;;7.99;100.00;99880.75;4938084;29;20044;-66
2023/11/11 01:01:34;;;;;;;7.75;3.97;;;;;;;7.97;100.00;99876.69;4951186;29;20054;-68
2023/11/11 01:04:22;;;;;;;7.57;3.85;;;;;;;7.95;100.00;99890.53;4937713;29;20036;-68
2023/11/11 01:07:10;;;;;;;9.68;3.67;;;;;;;7.95;100.00;99890.53;4905991;29;20052;-67
2023/11/11 01:09:58;;;;;;;8.43;3.80;;;;;;;7.95;100.00;99895.13;4919796;29;20130;-68
2023/11/11 01:12:47;;;;;;;6.57;3.65;;;;;;;7.92;100.00;99901.94;4924107;29;20079;-66
2023/11/11 01:15:35;;;;;;;7.93;3.78;;;;;;;7.90;100.00;99906.81;4911384;29;20054;-67
2023/11/11 01:18:27;;;;;;;8.45;3.60;;;;;;;7.93;100.00;99898.13;4938540;29;20531;-67
2023/11/11 01:21:15;;;;;;;10.38;3.60;;;;;;;7.93;100.00;99906.25;4925301;29;20058;-68
2023/11/11 01:24:04;;;;;;;8.18;3.38;;;;;;;7.90;100.00;99907.63;4899185;29;20543;-66
2023/11/11 01:26:53;;;;;;;6.78;3.45;;;;;;;7.91;100.00;99924.69;4938144;29;20468;-66
2023/11/11 01:29:42;;;;;;;9.25;3.95;;;;;;;7.89;100.00;99916.84;4914282;29;20048;-66
2023/11/11 01:32:30;;;;;;;6.35;3.22;;;;;;;7.90;100.00;99925.78;4926267;29;20150;-64
2023/11/11 01:35:18;;;;;;;8.45;3.30;;;;;;;7.90;100.00;99926.59;4935371;28;20079;-66
2023/11/11 01:38:06;;;;;;;7.00;3.20;;;;;;;7.88;100.00;99931.47;4948559;29;20559;-66
2023/11/11 01:40:54;;;;;;;9.70;3.45;;;;;;;7.89;100.00;99924.19;4942701;29;20068;-68
2023/11/11 01:43:42;;;;;;;6.18;3.05;;;;;;;7.88;100.00;99923.34;4910285;29;20117;-67
2023/11/11 01:46:32;;;;;;;8.98;3.10;;;;;;;7.84;100.00;99922.28;4893530;29;20559;-67
2023/11/11 01:49:21;;;;;;;5.65;2.75;;;;;;;7.84;100.00;99930.41;4919762;29;20568;-67
2023/11/11 01:52:10;;;;;;;6.72;2.95;;;;;;;7.81;100.00;99935.56;4914116;29;20047;-68
2023/11/11 01:54:58;;;;;;;8.95;2.97;;;;;;;7.81;100.00;99935.56;4937722;29;20142;-67
2023/11/11 01:57:46;;;;;;;6.72;3.00;;;;;;;7.82;100.00;99946.13;4924960;29;20099;-68
2023/11/11 02:00:36;;;;;;;5.18;2.63;;;;;;;7.82;100.00;99951.56;4911524;29;20055;-67
2023/11/11 02:03:24;;;;;;;7.22;2.97;;;;;;;7.80;100.00;99947.50;4899094;29;20044;-67
2023/11/11 02:06:12;;;;;;;5.00;2.70;;;;;;;7.80;100.00;99942.88;4932642;29;20126;-68
2023/11/11 02:09:00;;;;;;;5.25;2.80;;;;;;;7.81;100.00;99943.69;4937676;29;20040;-67
2023/11/11 02:11:51;;;;;;;5.28;2.28;;;;;;;7.79;100.00;99943.97;4950637;28;20083;-67
2023/11/11 02:14:39;;;;;;;5.47;2.30;;;;;;;7.79;100.00;99945.84;4921095;29;20502;-67
2023/11/11 02:17:29;;;;;;;6.65;2.53;;;;;;;7.78;100.00;99944.25;4917932;29;20048;-66
2023/11/11 02:20:16;;;;;;;6.72;2.60;;;;;;;7.76;100.00;99946.41;4911287;29;20055;-67
2023/11/11 02:23:05;;;;;;;4.65;2.25;;;;;;;7.74;100.00;99945.84;4936876;29;20608;-67
2023/11/11 02:25:53;;;;;;;4.72;2.40;;;;;;;7.71;100.00;99944.50;4936823;29;20044;-68
2023/11/11 02:28:41;;;;;;;5.40;2.25;;;;;;;7.73;100.00;99953.19;4916914;29;20130;-68
2023/11/11 02:31:28;;;;;;;6.65;2.50;;;;;;;7.73;100.00;99950.47;4942429;29;20050;-68
2023/11/11 02:34:16;;;;;;;5.32;2.40;;;;;;;7.72;100.00;99948.84;4929439;29;20055;-68
2023/11/11 02:37:04;;;;;;;4.53;2.05;;;;;;;7.69;100.00;99952.09;4920308;29;20409;-68
2023/11/11 02:39:52;;;;;;;8.15;2.40;;;;;;;7.66;100.00;99948.03;4936934;29;20519;-68
2023/11/11 02:42:41;;;;;;;5.57;2.13;;;;;;;7.65;100.00;99957.25;4935976;29;20047;-68
2023/11/11 02:45:30;;;;;;;3.80;2.00;;;;;;;7.63;100.00;99954.00;4934638;29;20056;-68
2023/11/11 02:48:18;;;;;;;7.32;2.67;;;;;;;7.61;100.00;99956.16;4933083;29;20035;-68
2023/11/11 02:51:06;;;;;;;6.43;2.10;;;;;;;7.60;100.00;99959.97;4923828;29;20507;-68
2023/11/11 02:53:55;;;;;;;6.35;2.33;;;;;;;7.61;100.00;99960.78;4935962;29;20508;-68
2023/11/11 02:56:44;;;;;;;6.82;2.15;;;;;;;7.60;100.00;99962.66;4936522;29;20047;-66
2023/11/11 02:59:32;;;;;;;6.32;2.15;;;;;;;7.63;100.00;99967.53;4936232;29;20146;-68
2023/11/11 03:02:21;;;;;;;7.65;2.30;;;;;;;7.62;100.00;99976.75;4936184;29;20127;-67
2023/11/11 03:05:10;;;;;;;4.05;1.85;;;;;;;7.63;100.00;99991.94;4935838;29;20074;-67
2023/11/11 03:07:58;;;;;;;5.68;2.25;;;;;;;7.62;100.00;100001.16;4936926;29;20047;-67
2023/11/11 03:10:46;;;;;;;3.78;1.70;;;;;;;7.62;100.00;100011.19;4919206;29;20043;-67
2023/11/11 03:13:34;;;;;;;5.38;1.83;;;;;;;7.63;100.00;100013.63;4942969;28;20500;-67
2023/11/11 03:16:22;;;;;;;6.63;2.28;;;;;;;7.64;100.00;100012.53;4941820;29;20459;-69
2023/11/11 03:19:10;;;;;;;5.93;2.28;;;;;;;7.61;100.00;100015.00;4923001;29;20047;-67
2023/11/11 03:21:58;;;;;;;4.97;1.90;;;;;;;7.63;100.00;100027.19;4909645;29;20079;-65
2023/11/11 03:24:46;;;;;;;5.68;2.15;;;;;;;7.62;100.00;100028.25;4917576;29;20048;-68
2023/11/11 03:27:34;;;;;;;4.28;1.60;;;;;;;7.63;100.00;100034.50;4923617;29;20047;-69
2023/11/11 03:30:22;;;;;;;4.93;2.15;;;;;;;7.61;100.00;100048.31;4922442;29;20044;-67
2023/11/11 03:33:10;;;;;;;5.53;1.90;;;;;;;7.58;100.00;100059.72;4909576;29;20051;-67
2023/11/11 03:35:58;;;;;;;5.97;1.80;;;;;;;7.56;100.00;100072.72;4909959;29;20048;-67
2023/11/11 03:38:46;;;;;;;6.22;1.60;;;;;;;7.51;100.00;100078.13;4922149;29;20095;-67
2023/11/11 03:41:34;;;;;;;6.15;2.08;;;;;;;7.50;100.00;100081.91;4934920;29;20044;-67
2023/11/11 03:44:22;;;;;;;3.40;1.40;;;;;;;7.45;100.00;100071.03;4936743;28;20583;-67
2023/11/11 03:47:11;;;;;;;5.05;1.60;;;;;;;7.42;100.00;100064.25;4920401;29;20062;-67
2023/11/11 03:49:59;;;;;;;3.47;1.52;;;;;;;7.41;100.00;100054.50;4935281;29;20099;-67
2023/11/11 03:52:47;;;;;;;3.80;1.33;;;;;;;7.46;100.00;100051.81;4935296;29;20043;-67
2023/11/11 03:55:35;;;;;;;6.43;1.73;;;;;;;7.49;100.00;100053.19;4936624;29;20052;-67
2023/11/11 03:58:23;;;;;;;3.03;1.58;;;;;;;7.53;100.00;100051.56;4936105;29;20051;-67
2023/11/11 04:01:11;;;;;;;2.90;1.40;;;;;;;7.57;100.00;100059.97;4927671;28;20588;-66
2023/11/11 04:03:59;;;;;;;6.60;1.80;;;;;;;7.60;100.00;100062.97;4943902;29;20420;-66
2023/11/11 04:06:48;;;;;;;5.78;1.88;;;;;;;7.60;100.00;100068.41;4955161;29;20054;-66
2023/11/11 04:09:41;;;;;;;3.50;1.50;;;;;;;7.57;100.00;100071.63;4913709;29;20481;-66
2023/11/11 04:12:29;;;;;;;4.40;1.52;;;;;;;7.57;100.00;100052.66;4926278;29;20048;-66
2023/11/11 04:15:19;;;;;;;7.60;2.00;;;;;;;7.57;100.00;100062.69;4927502;28;20052;-66
2023/11/11 04:18:08;;;;;;;5.57;1.90;;;;;;;7.58;100.00;100077.88;4924779;29;20521;-65
2023/11/11 04:20:58;;;;;;;5.03;1.70;;;;;;;7.57;100.00;100076.22;4925419;29;20054;-66
2023/11/11 04:23:46;;;;;;;4.28;1.50;;;;;;;7.58;100.00;100081.41;4925985;29;20044;-67
2023/11/11 04:26:34;;;;;;;4.72;1.80;;;;;;;7.59;100.00;100083.00;4939698;29;20055;-66
2023/11/11 04:29:22;;;;;;;5.13;1.50;;;;;;;7.61;100.00;100093.59;4925494;28;20423;-67
2023/11/11 04:32:09;;;;;;;4.57;1.50;;;;;;;7.60;100.00;100100.94;4913329;29;20548;-68
2023/11/11 04:34:57;;;;;;;4.32;1.73;;;;;;;7.62;100.00;100109.59;4925682;29;20070;-66
2023/11/11 04:37:45;;;;;;;3.70;1.42;;;;;;;7.62;100.00;100111.50;4926098;29;20134;-68
2023/11/11 04:40:36;;;;;;;5.93;1.80;;;;;;;7.62;100.00;100106.06;4926392;28;20496;-67
2023/11/11 04:43:24;;;;;;;4.05;1.60;;;;;;;7.63;100.00;100110.44;4952411;28;20419;-67
2023/11/11 04:46:12;;;;;;;3.35;1.48;;;;;;;7.65;100.00;100109.06;4921295;29;20091;-67
2023/11/11 04:49:00;;;;;;;3.60;1.40;;;;;;;7.66;100.00;100120.72;4931833;29;20496;-66
2023/11/11 04:51:48;;;;;;;4.80;1.73;;;;;;;7.66;100.00;100109.88;4931813;29;20087;-67
2023/11/11 04:54:36;;;;;;;4.47;1.40;;;;;;;7.65;100.00;100109.06;4892852;29;20068;-66
2023/11/11 04:57:24;;;;;;;5.20;1.67;;;;;;;7.66;100.00;100110.69;4900048;29;20049;-67
2023/11/11 05:00:13;;;;;;;5.95;2.05;;;;;;;7.65;100.00;100111.78;4918466;29;20052;-67
2023/11/11 05:03:01;;;;;;;5.97;1.60;;;;;;;7.65;100.00;100117.22;4919855;29;20052;-66
2023/11/11 05:05:49;;;;;;;4.20;1.58;;;;;;;7.64;100.00;100117.47;4919341;29;20195;-66
2023/11/11 05:08:38;;;;;;;4.15;1.90;;;;;;;7.62;100.00;100123.16;4918585;29;20052;-66
2023/11/11 05:11:29;;;;;;;5.85;1.60;;;;;;;7.60;100.00;100114.50;4917066;29;20048;-66
2023/11/11 05:14:18;;;;;;;7.10;2.20;;;;;;;7.57;100.00;100116.91;4917591;29;20473;-66
2023/11/11 05:17:07;;;;;;;6.22;1.92;;;;;;;7.57;100.00;100125.03;4919192;29;20048;-66
2023/11/11 05:19:58;;;;;;;5.97;2.10;;;;;;;7.54;100.00;100120.97;4917960;29;20048;-66
2023/11/11 05:22:46;;;;;;;8.15;2.38;;;;;;;7.52;100.00;100119.59;4904777;29;20052;-66
2023/11/11 05:25:34;;;;;;;8.98;2.72;;;;;;;7.50;100.00;100125.28;4907289;28;20048;-66
2023/11/11 05:28:22;;;;;;;7.00;2.35;;;;;;;7.48;100.00;100124.75;4919246;29;20498;-66
2023/11/11 05:31:10;;;;;;;8.25;2.58;;;;;;;7.47;100.00;100133.94;4918490;29;20513;-66
2023/11/11 05:33:59;;;;;;;11.43;3.10;;;;;;;7.42;100.00;100132.00;4902700;29;20071;-67
2023/11/11 05:36:47;;;;;;;7.28;2.67;;;;;;;7.41;100.00;100126.88;4905870;29;20522;-66
2023/11/11 05:39:35;;;;;;;11.90;2.95;;;;;;;7.40;100.00;100134.16;4919229;29;20421;-66
2023/11/11 05:42:23;;;;;;;7.32;2.80;;;;;;;7.39;100.00;100137.16;4918631;29;20059;-66
2023/11/11 05:45:11;;;;;;;10.32;2.67;;;;;;;7.37;100.00;100140.13;4919037;29;20055;-66
2023/11/11 05:47:59;;;;;;;9.45;2.63;;;;;;;7.33;100.00;100143.63;4906958;29;20052;-67
2023/11/11 05:50:47;;;;;;;8.02;2.70;;;;;;;7.30;100.00;100144.97;4926050;29;20044;-63
2023/11/11 05:53:36;;;;;;;8.48;2.78;;;;;;;7.28;100.00;100140.88;4929087;29;20067;-64
2023/11/11 05:56:24;;;;;;;8.73;3.22;;;;;;;7.25;100.00;100151.16;4938858;29;20496;-65
2023/11/11 05:59:12;;;;;;;9.25;3.08;;;;;;;7.23;100.00;100156.03;4940340;29;20055;-65
2023/11/11 06:02:04;;;;;;;7.50;2.65;;;;;;;7.23;100.00;100158.75;4932276;29;20125;-64
2023/11/11 06:04:52;;;;;;;8.00;3.13;;;;;;;7.23;100.00;100147.91;4948641;29;20055;-66
2023/11/11 06:07:40;;;;;;;8.20;2.65;;;;;;;7.28;100.00;100167.97;4939705;28;20050;-67
2023/11/11 06:10:29;;;;;;;9.25;3.03;;;;;;;7.28;100.00;100173.41;4937757;29;20044;-66
2023/11/11 06:13:17;;;;;;;7.63;2.80;;;;;;;7.17;100.00;100162.50;4923235;29;20056;-67
2023/11/11 06:16:06;;;;;;;11.90;3.50;;;;;;;7.20;100.00;100172.00;4937623;29;20064;-67
2023/11/11 06:18:54;;;;;;;9.70;3.30;;;;;;;7.22;100.00;100181.50;4922831;29;20051;-67
2023/11/11 06:21:42;;;;;;;13.18;3.65;;;;;;;7.21;100.00;100176.34;4937335;29;20056;-67
2023/11/11 06:24:31;;;;;;;7.38;2.70;;;;;;;7.23;100.00;100188.53;4935816;29;20062;-66
2023/11/11 06:27:19;;;;;;;14.77;3.33;;;;;;;7.24;100.00;100184.78;4937660;28;20519;-66
2023/11/11 06:30:09;;;;;;;7.70;3.20;;;;;;;7.24;100.00;100189.38;4925441;29;20055;-66
2023/11/11 06:32:58;;;;;;;9.45;3.42;;;;;;;7.24;100.00;100192.09;4923561;29;20143;-66
2023/11/11 06:35:46;;;;;;;9.05;3.50;;;;;;;7.23;100.00;100190.44;4923140;29;20195;-67
2023/11/11 06:38:34;;;;;;;7.30;2.97;;;;;;;7.23;100.00;100199.38;4937431;28;20047;-66
2023/11/11 06:41:23;;;;;;;7.78;3.53;;;;;;;7.21;100.00;100188.00;4923424;29;20409;-65
2023/11/11 06:44:11;;;;;;;10.63;4.10;;;;;;;7.23;100.00;100196.69;4922435;29;20055;-66
2023/11/11 06:46:59;;;;;;;11.20;3.70;;;;;;;7.21;100.00;100195.31;4936187;29;20151;-66
2023/11/11 06:49:47;;;;;;;9.82;3.55;;;;;;;7.22;100.00;100205.88;4937882;28;20083;-66
2023/11/11 06:52:35;;;;;;;10.38;3.80;;;;;;;7.21;100.00;100217.78;4923051;29;20062;-66
2023/11/11 06:55:23;;;;;;;12.35;3.97;;;;;;;7.11;100.00;100228.56;4935422;29;20058;-67
2023/11/11 06:58:11;;;;;;;14.02;4.15;;;;;;;6.94;100.00;100244.94;4922613;29;20059;-67
2023/11/11 07:00:59;;;;;;;11.65;3.75;;;;;;;6.80;100.00;100232.91;4937329;29;20052;-69
2023/11/11 07:03:47;;;;;;;12.30;4.15;;;;;;;6.75;100.00;100230.97;4936485;29;20048;-69
2023/11/11 07:06:36;;;;;;;8.55;3.92;;;;;;;6.77;100.00;100239.66;4921541;29;20052;-69
2023/11/11 07:09:24;;;;;;;15.73;4.80;;;;;;;6.79;100.00;100239.41;4921186;29;20448;-69
2023/11/11 07:12:13;;;;;;;11.02;4.93;;;;;;;6.80;100.00;100239.13;4909027;29;20146;-69
2023/11/11 07:15:01;;;;;;;13.90;4.40;;;;;;;6.88;100.00;100237.88;4935281;28;20079;-69
2023/11/11 07:17:50;;;;;;;11.82;4.07;;;;;;;6.92;100.00;100236.25;4935706;29;20044;-69
2023/11/11 07:20:39;;;;;;;9.57;3.92;;;;;;;6.92;100.00;100246.28;4922472;29;20044;-69
2023/11/11 07:23:28;;;;;;;12.75;4.28;;;;;;;6.93;100.00;100242.53;4947353;29;20056;-69
2023/11/11 07:26:17;;;;;;;11.63;4.38;;;;;;;6.91;100.00;100250.09;4921591;29;20546;-69
2023/11/11 07:29:06;;;;;;;10.68;4.10;;;;;;;6.91;100.00;100256.31;4935863;29;20078;-69
2023/11/11 07:31:55;;;;;;;10.40;4.20;;;;;;;6.90;100.00;100259.25;4936542;29;20040;-69
2023/11/11 07:34:43;;;;;;;11.40;3.70;;;;;;;6.93;100.00;100265.00;4926537;29;20055;-68
2023/11/11 07:37:33;;;;;;;8.43;4.18;;;;;;;7.01;100.00;100269.94;4922101;29;20418;-69
2023/11/11 07:40:21;;;;;;;13.77;4.45;;;;;;;7.06;100.00;100262.94;4921318;29;20071;-69
2023/11/11 07:43:09;;;;;;;12.18;4.30;;;;;;;7.06;100.00;100242.06;4922116;29;20055;-69
2023/11/11 07:46:00;;;;;;;9.10;3.67;;;;;;;7.07;100.00;100257.25;4922940;29;20048;-68
2023/11/11 07:48:48;;;;;;;9.45;3.83;;;;;;;7.11;100.00;100276.50;4922628;29;20208;-68
2023/11/11 07:51:36;;;;;;;10.40;3.72;;;;;;;7.14;100.00;100274.09;4921558;29;20062;-67
2023/11/11 07:54:24;;;;;;;12.95;4.47;;;;;;;7.16;100.00;100268.41;4920492;29;20067;-69
2023/11/11 07:57:13;;;;;;;13.50;4.70;;;;;;;7.17;100.00;100275.50;4908939;29;20071;-69
2023/11/11 08:00:03;;;;;;;10.32;4.38;;;;;;;7.18;100.00;100272.50;4896962;29;20620;-69
2023/11/11 08:02:55;;;;;;;14.18;4.47;;;;;;;7.23;100.00;100283.38;4935323;29;20130;-69
2023/11/11 08:05:44;;;;;;;13.48;4.85;;;;;;;7.27;100.00;100291.81;4936329;29;20627;-68
2023/11/11 08:08:33;;;;;;;10.48;4.47;;;;;;;7.29;100.00;100291.53;4948405;29;20595;-68
2023/11/11 08:11:22;;;;;;;12.98;4.68;;;;;;;7.29;100.00;100305.09;4927941;29;20099;-69
2023/11/11 08:14:10;;;;;;;10.40;4.07;;;;;;;7.30;100.00;100298.63;4936008;29;20062;-69
2023/11/11 08:16:58;;;;;;;11.30;4.32;;;;;;;7.30;100.00;100307.56;4947863;29;20075;-69
2023/11/11 08:19:47;;;;;;;11.25;4.03;;;;;;;7.31;100.00;100311.06;4919855;29;20186;-68
2023/11/11 08:22:35;;;;;;;14.15;5.07;;;;;;;7.32;100.00;100307.31;4935659;29;20052;-68
2023/11/11 08:25:23;;;;;;;12.57;4.45;;;;;;;7.30;100.00;100314.88;4934093;29;20044;-70
2023/11/11 08:28:11;;;;;;;13.98;4.45;;;;;;;7.24;100.00;100305.91;4921775;29;20047;-70
2023/11/11 08:31:00;;;;;;;12.57;4.93;;;;;;;7.27;100.00;100315.41;4936254;29;20048;-68
2023/11/11 08:33:51;;;;;;;11.82;4.70;;;;;;;7.29;100.00;100314.06;4929188;29;20130;-71
2023/11/11 08:36:39;;;;;;;13.48;5.80;;;;;;;7.30;100.00;100312.16;4934743;29;20485;-70
2023/11/11 08:39:37;;;;;;;13.40;5.32;;;;;;;7.27;100.00;100318.91;4922322;29;20060;-69
2023/11/11 08:42:25;;;;;;;14.18;5.18;;;;;;;7.29;100.00;100313.22;4922117;29;20048;-68
2023/11/11 08:45:13;;;;;;;13.38;6.28;;;;;;;7.27;100.00;100309.97;4905291;29;20046;-67
2023/11/11 08:48:01;;;;;;;13.80;5.57;;;;;;;7.28;100.00;100308.88;4941085;29;20051;-68
2023/11/11 08:50:50;;;;;;;13.95;6.22;;;;;;;7.28;100.00;100314.31;4938508;29;20127;-68
2023/11/11 08:53:38;;;;;;;12.77;5.82;;;;;;;7.25;100.00;100311.03;4941044;29;20066;-68
2023/11/11 08:56:28;;;;;;;14.02;6.40;;;;;;;7.26;100.00;100317.25;4942484;29;20048;-68
2023/11/11 08:59:17;;;;;;;14.45;5.70;;;;;;;7.29;100.00;100315.94;4925814;29;20492;-68
2023/11/11 09:02:05;;;;;;;9.52;4.40;;;;;;;7.33;100.00;100314.34;4925681;29;20531;-70
2023/11/11 09:04:53;;;;;;;13.80;5.10;;;;;;;7.36;100.00;100311.09;4925333;29;20048;-69
2023/11/11 09:07:41;;;;;;;13.10;5.53;;;;;;;7.37;100.00;100312.75;4937530;29;20138;-69
2023/11/11 09:10:31;;;;;;;11.13;4.85;;;;;;;7.42;100.00;100320.94;4936520;29;20102;-70
2023/11/11 09:13:22;;;;;;;16.30;5.95;;;;;;;7.41;100.00;100316.59;4938133;29;20122;-68
2023/11/11 09:16:11;;;;;;;14.63;6.00;;;;;;;7.42;100.00;100313.59;4937505;29;20047;-69
2023/11/11 09:19:00;;;;;;;18.60;6.03;;;;;;;7.45;100.00;100323.13;4938148;29;20138;-68
2023/11/11 09:21:47;;;;;;;10.55;4.50;;;;;;;7.50;100.00;100323.16;4923295;29;20059;-68
2023/11/11 09:24:36;;;;;;;13.93;5.57;;;;;;;7.51;100.00;100319.38;4938198;29;20039;-68
2023/11/11 09:27:24;;;;;;;12.23;5.70;;;;;;;7.52;100.00;100326.41;4940598;29;20047;-70
2023/11/11 09:30:13;;;;;;;12.57;5.80;;;;;;;7.54;100.00;100324.28;4918602;29;20560;-70
2023/11/11 09:33:02;;;;;;;14.43;6.32;;;;;;;7.56;100.00;100324.84;4939563;29;20134;-71
2023/11/11 09:35:50;;;;;;;11.73;5.63;;;;;;;7.55;100.00;100336.75;4926460;29;20063;-69
2023/11/11 09:38:40;;;;;;;13.52;5.80;;;;;;;7.59;100.00;100331.63;4936584;28;20501;-70
2023/11/11 09:41:30;;;;;;;11.07;5.18;;;;;;;7.59;100.00;100332.44;4907214;29;20492;-70
2023/11/11 09:44:18;;;;;;;10.23;5.25;;;;;;;7.64;100.00;100326.25;4937750;29;20052;-69
2023/11/11 09:47:14;;;;;;;12.20;5.57;;;;;;;7.66;100.00;100327.59;4949526;29;20118;-68
2023/11/11 09:50:05;;;;;;;14.20;6.50;;;;;;;7.69;100.00;100332.50;4938434;29;20051;-68
2023/11/11 09:52:54;;;;;;;12.25;5.68;;;;;;;7.73;100.00;100321.16;4924933;29;20115;-68
2023/11/11 09:55:43;;;;;;;10.57;5.05;;;;;;;7.74;100.00;100328.19;4912166;29;20051;-69
2023/11/11 09:58:32;;;;;;;12.23;5.68;;;;;;;7.79;100.00;100336.38;4910569;29;20514;-69
2023/11/11 10:01:21;;;;;;;14.80;5.97;;;;;;;7.83;100.00;100330.16;4936155;29;20083;-70
2023/11/11 10:04:13;;;;;;;13.18;5.40;;;;;;;7.87;100.00;100347.56;4906051;29;20052;-69
2023/11/11 10:07:01;;;;;;;13.45;5.45;;;;;;;7.90;100.00;100338.06;4931529;29;20068;-70
2023/11/11 10:09:51;;;;;;;12.13;4.50;;;;;;;7.98;100.00;100334.84;4946323;29;20493;-68
2023/11/11 10:12:39;;;;;;;12.35;5.45;;;;;;;8.03;100.00;100337.63;4938276;29;20044;-69
2023/11/11 10:15:28;;;;;;;8.63;3.88;;;;;;;8.08;100.00;100334.94;4941286;29;20048;-71
2023/11/11 10:18:16;;;;;;;12.15;5.10;;;;;;;8.13;100.00;100341.44;4953058;29;20767;-69
2023/11/11 10:21:06;;;;;;;11.00;4.85;;;;;;;8.19;100.00;100345.81;4938825;29;20051;-69
2023/11/11 10:23:55;;;;;;;12.02;4.47;;;;;;;8.18;100.00;100352.31;4932768;29;20052;-70
2023/11/11 10:26:43;;;;;;;10.88;4.80;;;;;;;8.18;100.00;100360.47;4931724;28;20465;-69
2023/11/11 10:29:35;;;;;;;12.43;4.72;;;;;;;8.18;100.00;100355.03;4921309;29;20386;-70
2023/11/11 10:32:23;;;;;;;10.77;4.45;;;;;;;8.16;100.00;100351.78;4921097;29;20054;-69
2023/11/11 10:35:12;;;;;;;10.57;4.13;;;;;;;8.20;100.00;100359.13;4932969;29;20048;-71
2023/11/11 10:38:02;;;;;;;11.80;4.65;;;;;;;8.27;100.00;100358.88;4931943;29;20122;-69
2023/11/11 10:40:50;;;;;;;9.25;4.03;;;;;;;8.35;100.00;100352.97;4879483;29;20136;-69
2023/11/11 10:43:40;;;;;;;11.32;4.60;;;;;;;8.37;100.00;100358.09;4910625;29;20064;-67
2023/11/11 10:46:28;;;;;;;8.38;3.95;;;;;;;8.40;100.00;100350.31;4938859;29;20190;-72
2023/11/11 10:49:16;;;;;;;11.93;4.45;;;;;;;8.38;100.00;100352.44;4937805;29;20484;-70
2023/11/11 10:52:06;;;;;;;9.88;3.97;;;;;;;8.38;100.00;100355.13;4950220;29;20181;-70
2023/11/11 10:54:56;;;;;;;12.48;4.05;;;;;;;8.45;100.00;100360.38;4915785;29;20095;-71
2023/11/11 10:57:45;;;;;;;11.32;4.43;;;;;;;8.46;100.00;100356.56;4935650;29;20061;-70
2023/11/11 11:00:35;;;;;;;9.77;4.45;;;;;;;8.46;100.00;100357.38;4925429;28;20054;-71
2023/11/11 11:03:24;;;;;;;12.95;4.47;;;;;;;8.52;100.00;100367.19;4898533;29;20138;-70
2023/11/11 11:06:25;;;;;;;11.23;4.30;;;;;;;8.55;100.00;100370.44;4937064;29;20138;-72
2023/11/11 11:09:38;;;;;;;10.23;4.53;;;;;;;8.49;100.00;100369.59;4936535;28;20054;-71
2023/11/11 11:12:52;;;;;;;11.73;4.40;;;;;;;8.43;100.00;100360.63;4938318;29;20126;-68
2023/11/11 11:15:44;;;;;;;13.55;4.38;;;;;;;8.42;100.00;100367.16;4921538;29;20058;-69
2023/11/11 11:18:32;;;;;;;14.63;4.25;;;;;;;8.41;100.00;100370.13;4923257;29;20417;-72
2023/11/11 11:21:22;;;;;;;11.63;4.43;;;;;;;8.41;100.00;100368.22;4937084;29;20055;-69
2023/11/11 11:24:11;;;;;;;12.43;4.90;;;;;;;8.41;100.00;100368.22;4922606;29;20039;-71
2023/11/11 11:27:01;;;;;;;9.45;4.00;;;;;;;8.41;100.00;100370.13;4935990;29;20496;-68
2023/11/11 11:29:49;;;;;;;9.25;4.55;;;;;;;8.42;100.00;100372.56;4922741;29;20082;-68
2023/11/11 11:32:39;;;;;;;10.05;4.00;;;;;;;8.43;100.00;100368.75;4922457;29;20510;-67
2023/11/11 11:35:30;;;;;;;10.63;3.97;;;;;;;8.46;100.00;100376.38;4948062;29;20084;-68
2023/11/11 11:38:39;;;;;;;9.70;3.72;;;;;;;8.48;100.00;100376.13;4927668;29;20612;-66
2023/11/11 11:41:27;;;;;;;11.02;4.45;;;;;;;8.48;100.00;100371.50;4922508;29;20044;-66
2023/11/11 11:44:15;;;;;;;10.65;4.32;;;;;;;8.49;100.00;100373.16;4909208;29;20419;-67
2023/11/11 11:47:04;;;;;;;10.32;4.32;;;;;;;8.50;100.00;100369.34;4896690;29;20628;-67
2023/11/11 11:49:56;;;;;;;11.43;4.63;;;;;;;8.51;100.00;100364.72;4937485;29;20547;-68
2023/11/11 11:52:46;;;;;;;12.75;4.72;;;;;;;8.52;100.00;100378.03;4931166;29;20409;-68
2023/11/11 11:55:38;;;;;;;10.40;4.15;;;;;;;8.52;100.00;100377.22;4917285;29;20052;-67
2023/11/11 11:58:26;;;;;;;9.70;3.90;;;;;;;8.51;100.00;100383.72;4921582;29;20179;-67
2023/11/11 12:01:31;;;;;;;9.43;4.20;;;;;;;8.51;100.00;100370.16;4911490;29;20055;-67
2023/11/11 12:04:21;;;;;;;10.38;3.67;;;;;;;8.55;100.00;100371.25;4931173;29;20052;-67
2023/11/11 12:07:12;;;;;;;9.93;4.20;;;;;;;8.52;100.00;100372.59;4930170;28;20056;-67
2023/11/11 12:10:00;;;;;;;8.60;3.85;;;;;;;8.53;100.00;100374.22;4941807;29;20056;-67
2023/11/11 12:12:49;;;;;;;8.77;3.33;;;;;;;8.58;100.00;100375.34;4933809;29;20047;-67
2023/11/11 12:15:37;;;;;;;8.45;3.80;;;;;;;8.61;100.00;100380.22;4935409;29;20055;-68
2023/11/11 12:18:26;;;;;;;9.80;3.90;;;;;;;8.61;100.00;100380.22;4948195;29;20052;-68
2023/11/11 12:21:18;;;;;;;9.05;3.58;;;;;;;8.60;100.00;100378.63;4951209;28;20055;-66
2023/11/11 12:24:08;;;;;;;11.30;4.32;;;;;;;8.62;100.00;100377.25;4938817;29;20130;-66
2023/11/11 12:26:59;;;;;;;9.55;3.63;;;;;;;8.68;100.00;100373.50;4940004;29;20048;-66
2023/11/11 12:29:50;;;;;;;14.30;3.92;;;;;;;8.74;100.00;100374.31;4925547;29;20052;-66
2023/11/11 12:32:38;;;;;;;6.95;3.13;;;;;;;8.82;100.00;100375.69;4939227;29;20052;-66
2023/11/11 12:35:26;;;;;;;9.98;3.53;;;;;;;8.88;100.00;100370.03;4940290;29;20126;-66
2023/11/11 12:38:25;;;;;;;10.65;3.58;;;;;;;8.89;100.00;100368.91;4916872;29;20533;-66
2023/11/11 12:41:14;;;;;;;12.02;3.90;;;;;;;8.93;100.00;100364.59;4932375;29;20047;-66
2023/11/11 12:44:04;;;;;;;9.40;3.90;;;;;;;8.91;100.00;100372.19;4939222;29;20495;-65
2023/11/11 12:46:55;;;;;;;12.18;4.07;;;;;;;8.93;100.00;100364.59;4932193;29;20082;-65
2023/11/11 12:49:56;;;;;;;10.25;3.58;;;;;;;8.93;100.00;100366.50;4938071;29;20175;-66
2023/11/11 12:53:03;;;;;;;11.60;3.42;;;;;;;8.95;100.00;100369.78;4938804;29;20511;-66
2023/11/11 12:56:04;;;;;;;6.70;3.25;;;;;;;8.98;100.00;100371.13;4938852;29;20126;-66
2023/11/11 12:59:13;;;;;;;11.35;3.67;;;;;;;9.01;100.00;100367.88;4931852;29;20074;-66
2023/11/11 13:02:06;;;;;;;12.45;3.50;;;;;;;9.02;100.00;100373.03;4911850;29;20052;-66
2023/11/11 13:04:55;;;;;;;6.82;2.80;;;;;;;9.05;100.00;100386.09;4916657;29;20110;-66
2023/11/11 13:07:45;;;;;;;11.15;4.22;;;;;;;9.11;100.00;100378.75;4921689;29;20175;-67